Time;durP1;ratioP1;P1;durP2;ratioP2;P2;SDS_P1;SDS_P2;PMS_P1;PMS_P2;Temp;Humidity;BMP_temperature;BMP_pressure;BME280_temperature;BME280_humidity;BME280_pressure;Samples;Min_cycle;Max_cycle;Signal;HPM_P1;HPM_P2
2024/04/04 00:01:43;;;;;;;;;;;13.30;35.10;14.90;97933.00;;;;5046302;28;1621;-85
2024/04/04 00:04:10;;;;;;;;;;;13.20;35.10;15.00;97901.00;;;;5055567;28;1906;-86
2024/04/04 00:06:36;;;;;;;;;;;13.30;35.20;14.90;97864.00;;;;5056254;28;1685;-87
2024/04/04 00:09:03;;;;;;;;;;;13.30;35.10;15.00;97874.00;;;;5056631;28;1836;-86
2024/04/04 00:11:29;;;;;;;;;;;13.20;35.00;15.00;97938.00;;;;5056088;28;1572;-87
2024/04/04 00:13:58;;;;;;;;;;;13.30;35.20;15.00;97933.00;;;;5056202;28;1674;-87
2024/04/04 00:16:24;;;;;;;;;;;13.30;35.30;15.00;97931.00;;;;5056390;28;1736;-87
2024/04/04 00:18:51;;;;;;;;;;;13.30;35.10;15.00;97893.00;;;;5056612;28;1464;-87
2024/04/04 00:21:17;;;;;;;;;;;13.30;35.10;15.00;97901.00;;;;5056385;28;1718;-86
2024/04/04 00:23:44;;;;;;;;;;;13.30;35.20;15.00;97942.00;;;;5040602;28;1902;-87
2024/04/04 00:26:10;;;;;;;;;;;13.30;35.20;15.00;97900.00;;;;5047452;28;1765;-87
2024/04/04 00:28:37;;;;;;;;;;;13.20;35.10;15.00;97883.00;;;;5055562;28;1405;-87
2024/04/04 00:31:05;;;;;;;;;;;13.30;35.10;15.00;97935.00;;;;5056593;28;1662;-87
2024/04/04 00:33:32;;;;;;;;;;;13.30;35.20;15.00;97949.00;;;;5055665;28;1793;-87
2024/04/04 00:35:58;;;;;;;;;;;13.20;35.10;15.00;97904.00;;;;5056191;28;1789;-87
2024/04/04 00:38:25;;;;;;;;;;;13.20;35.10;15.00;97948.00;;;;5056247;28;1693;-86
2024/04/04 00:40:51;;;;;;;;;;;13.20;35.10;14.90;97888.00;;;;5058644;28;1696;-86
2024/04/04 00:43:18;;;;;;;;;;;13.30;35.10;14.90;97884.00;;;;5055945;28;1983;-87
2024/04/04 00:45:44;;;;;;;;;;;13.20;35.00;14.90;97938.00;;;;5056218;28;1502;-87
2024/04/04 00:48:13;;;;;;;;;;;13.20;35.00;14.90;97958.00;;;;5056138;28;1702;-86
2024/04/04 00:50:39;;;;;;;;;;;13.20;35.10;14.90;97887.00;;;;5056058;28;1644;-87
2024/04/04 00:53:06;;;;;;;;;;;13.20;35.00;15.00;97952.00;;;;5047934;28;1767;-87
2024/04/04 00:55:32;;;;;;;;;;;13.20;35.10;14.90;97871.00;;;;5044933;28;1686;-87
2024/04/04 00:57:59;;;;;;;;;;;13.20;35.00;14.90;97952.00;;;;5041732;28;1622;-87
2024/04/04 01:00:25;;;;;;;;;;;13.30;35.10;14.80;97985.00;;;;5057101;28;1845;-87
2024/04/04 01:02:52;;;;;;;;;;;13.20;35.10;14.90;97957.00;;;;5051737;28;1898;-87
2024/04/04 01:05:20;;;;;;;;;;;13.30;35.20;14.90;97931.00;;;;5057594;28;1763;-88
2024/04/04 01:07:48;;;;;;;;;;;13.30;35.10;14.90;97936.00;;;;5048314;28;1717;-87
2024/04/04 01:10:15;;;;;;;;;;;13.30;35.10;14.80;97988.00;;;;5055911;28;1624;-88
2024/04/04 01:12:42;;;;;;;;;;;13.20;35.10;14.90;97986.00;;;;5055039;28;1831;-87
2024/04/04 01:15:08;;;;;;;;;;;13.20;35.10;14.80;98000.00;;;;5055991;28;1766;-88
2024/04/04 01:17:35;;;;;;;;;;;13.20;35.10;14.90;98005.00;;;;5057432;28;1737;-87
2024/04/04 01:20:01;;;;;;;;;;;13.20;35.10;14.90;97945.00;;;;5054329;28;1682;-88
2024/04/04 01:22:30;;;;;;;;;;;13.20;35.10;14.90;97981.00;;;;5054333;28;1645;-88
2024/04/04 01:24:57;;;;;;;;;;;13.20;35.10;14.90;97952.00;;;;5042083;28;1981;-88
2024/04/04 01:27:24;;;;;;;;;;;13.20;35.10;14.80;97955.00;;;;5059973;28;1722;-88
2024/04/04 01:29:50;;;;;;;;;;;13.20;35.00;14.90;97940.00;;;;5055552;28;1492;-88
2024/04/04 01:32:21;;;;;;;;;;;13.20;35.10;14.90;97983.00;;;;5056130;28;1474;-88
2024/04/04 01:34:47;;;;;;;;;;;13.20;35.20;14.90;97988.00;;;;5048579;28;1697;-89
2024/04/04 01:37:15;;;;;;;;;;;13.20;35.10;14.90;97927.00;;;;5055678;28;1701;-89
2024/04/04 01:39:41;;;;;;;;;;;13.20;35.10;14.90;97932.00;;;;5055074;28;1732;-89
2024/04/04 01:42:09;;;;;;;;;;;13.20;35.10;14.90;97999.00;;;;5055299;28;1689;-88
2024/04/04 01:44:35;;;;;;;;;;;13.20;35.20;14.90;98026.00;;;;5050841;28;1914;-88
2024/04/04 01:47:02;;;;;;;;;;;13.20;35.10;14.70;98000.00;;;;5050660;28;1554;-88
2024/04/04 01:49:28;;;;;;;;;;;13.20;35.10;14.90;97992.00;;;;5056800;28;1705;-88
2024/04/04 01:52:05;;;;;;;;;;;13.20;35.10;14.90;97974.00;;;;5055678;28;1754;-88
2024/04/04 01:54:31;;;;;;;;;;;13.20;35.20;14.90;97964.00;;;;5055458;28;1690;-88
2024/04/04 01:56:58;;;;;;;;;;;13.10;35.10;14.90;98011.00;;;;5055201;28;1809;-88
2024/04/04 01:59:25;;;;;;;;;;;13.20;35.10;14.80;97933.00;;;;5058259;28;1622;-89
2024/04/04 02:01:52;;;;;;;;;;;13.20;35.20;14.90;97987.00;;;;5059239;28;1714;-88
2024/04/04 02:04:19;;;;;;;;;;;13.20;35.10;14.80;97947.00;;;;5059045;28;1902;-88
2024/04/04 02:06:46;;;;;;;;;;;13.20;35.10;14.90;97989.00;;;;5059818;28;1483;-88
2024/04/04 02:09:12;;;;;;;;;;;13.20;35.10;14.90;97965.00;;;;5044980;28;1651;-88
2024/04/04 02:11:40;;;;;;;;;;;13.20;35.10;14.70;98026.00;;;;5055392;28;1693;-88
2024/04/04 02:14:09;;;;;;;;;;;13.10;35.10;14.80;97967.00;;;;5067890;28;1483;-88
2024/04/04 02:16:38;;;;;;;;;;;13.10;35.10;14.80;97986.00;;;;5050797;28;1820;-89
2024/04/04 02:19:04;;;;;;;;;;;13.10;35.20;14.80;98013.00;;;;5059034;28;1673;-88
2024/04/04 02:21:31;;;;;;;;;;;13.10;35.20;14.80;98012.00;;;;5057210;28;1367;-88
2024/04/04 02:23:57;;;;;;;;;;;13.10;35.10;14.80;97945.00;;;;5048822;28;1989;-88
2024/04/04 02:26:24;;;;;;;;;;;13.10;35.20;14.60;98008.00;;;;5058640;28;1758;-88
2024/04/04 02:28:51;;;;;;;;;;;13.10;35.20;14.80;97975.00;;;;5057406;28;1668;-88
2024/04/04 02:31:18;;;;;;;;;;;13.10;35.20;14.60;98052.00;;;;5057629;28;1494;-89
2024/04/04 02:33:45;;;;;;;;;;;13.10;35.20;14.80;97951.00;;;;5056431;28;1777;-88
2024/04/04 02:36:12;;;;;;;;;;;13.10;35.30;14.80;98005.00;;;;5058586;28;1768;-88
2024/04/04 02:38:38;;;;;;;;;;;13.10;35.30;14.80;98046.00;;;;5058828;28;1778;-88
2024/04/04 02:41:05;;;;;;;;;;;13.10;35.20;14.80;97967.00;;;;5058122;28;1401;-88
2024/04/04 02:43:31;;;;;;;;;;;13.00;35.20;14.80;97961.00;;;;5055864;28;1982;-88
2024/04/04 02:46:01;;;;;;;;;;;13.10;35.20;14.80;97975.00;;;;5059899;28;1612;-89
2024/04/04 02:48:28;;;;;;;;;;;13.10;35.30;14.80;97943.00;;;;5058172;28;1526;-89
2024/04/04 02:50:56;;;;;;;;;;;13.00;35.20;14.70;98004.00;;;;5044219;28;1791;-87
2024/04/04 02:53:23;;;;;;;;;;;13.10;35.30;14.80;97977.00;;;;5040783;28;1515;-89
2024/04/04 02:55:54;;;;;;;;;;;13.10;35.20;14.80;98002.00;;;;5050401;28;1698;-88
2024/04/04 02:58:21;;;;;;;;;;;13.10;35.30;14.80;97935.00;;;;5058329;28;1590;-88
2024/04/04 03:00:48;;;;;;;;;;;13.10;35.30;14.80;97977.00;;;;5054085;28;1628;-88
2024/04/04 03:03:14;;;;;;;;;;;13.10;35.20;14.80;97993.00;;;;5058242;28;1914;-88
2024/04/04 03:05:42;;;;;;;;;;;13.10;35.20;14.70;97937.00;;;;5058526;28;1681;-88
2024/04/04 03:08:09;;;;;;;;;;;13.00;35.20;14.50;98031.00;;;;5058256;28;1720;-88
2024/04/04 03:10:36;;;;;;;;;;;13.00;35.20;14.60;98022.00;;;;5055235;28;1625;-88
2024/04/04 03:13:03;;;;;;;;;;;13.00;35.20;14.70;97949.00;;;;5051702;28;1807;-88
2024/04/04 03:15:30;;;;;;;;;;;13.00;35.20;14.80;98002.00;;;;5057432;28;1526;-88
2024/04/04 03:17:56;;;;;;;;;;;13.10;35.30;14.80;98027.00;;;;5063425;28;1423;-88
2024/04/04 03:20:23;;;;;;;;;;;13.00;35.30;14.70;97949.00;;;;5058117;28;1532;-88
2024/04/04 03:22:49;;;;;;;;;;;13.00;35.20;14.80;97981.00;;;;5057818;28;1502;-88
2024/04/04 03:25:18;;;;;;;;;;;13.00;35.10;14.70;97993.00;;;;5057299;28;1898;-89
2024/04/04 03:27:45;;;;;;;;;;;13.00;35.20;14.70;97959.00;;;;5057836;28;1657;-88
2024/04/04 03:30:12;;;;;;;;;;;13.00;35.20;14.70;97960.00;;;;5044222;28;1651;-89
2024/04/04 03:32:38;;;;;;;;;;;13.00;35.20;14.70;97956.00;;;;5049189;28;1682;-88
2024/04/04 03:35:06;;;;;;;;;;;13.00;35.30;14.70;97965.00;;;;5057595;28;1755;-89
2024/04/04 03:37:32;;;;;;;;;;;13.00;35.50;14.70;98018.00;;;;5054634;28;1843;-89
2024/04/04 03:39:59;;;;;;;;;;;13.00;35.20;14.70;97981.00;;;;5057599;28;1626;-88
2024/04/04 03:42:26;;;;;;;;;;;13.00;35.20;14.70;97978.00;;;;5057164;28;1691;-89
2024/04/04 03:44:54;;;;;;;;;;;13.00;35.30;14.50;98018.00;;;;5057079;28;1906;-89
2024/04/04 03:47:20;;;;;;;;;;;13.00;35.30;14.70;97940.00;;;;5055090;28;1604;-88
2024/04/04 03:49:47;;;;;;;;;;;13.00;35.20;14.50;98007.00;;;;5060558;28;1655;-88
2024/04/04 03:52:14;;;;;;;;;;;13.00;35.20;14.70;97975.00;;;;5056656;28;1629;-88
2024/04/04 03:54:42;;;;;;;;;;;13.00;35.40;14.70;97933.00;;;;5057213;28;1646;-88
2024/04/04 03:57:09;;;;;;;;;;;13.00;35.30;14.70;97955.00;;;;5057262;28;1819;-88
2024/04/04 03:59:37;;;;;;;;;;;13.00;35.90;14.70;97972.00;;;;5057402;28;1814;-89
2024/04/04 04:02:05;;;;;;;;;;;13.00;35.40;14.70;97977.00;;;;5053747;28;1795;-88
2024/04/04 04:04:32;;;;;;;;;;;12.90;35.30;14.70;97944.00;;;;5056103;28;1902;-89
2024/04/04 04:06:58;;;;;;;;;;;12.90;35.20;14.70;97929.00;;;;5056254;28;1828;-88
2024/04/04 04:09:25;;;;;;;;;;;13.00;35.30;14.70;97996.00;;;;5056914;28;1493;-88
2024/04/04 04:11:52;;;;;;;;;;;13.00;35.20;14.70;97983.00;;;;5056933;28;1677;-88
2024/04/04 04:14:19;;;;;;;;;;;12.90;35.20;14.70;97986.00;;;;5056843;28;1557;-89
2024/04/04 04:16:46;;;;;;;;;;;12.90;35.20;14.60;97986.00;;;;5056864;28;1784;-88
2024/04/04 04:19:14;;;;;;;;;;;13.00;35.40;14.70;97998.00;;;;5053268;28;1705;-88
2024/04/04 04:21:40;;;;;;;;;;;12.90;35.30;14.50;98033.00;;;;5036481;28;1625;-89
2024/04/04 04:24:07;;;;;;;;;;;12.90;35.20;14.70;97979.00;;;;5050020;28;1992;-88
2024/04/04 04:26:34;;;;;;;;;;;12.90;35.20;14.70;97974.00;;;;5056340;28;1645;-88
2024/04/04 04:29:01;;;;;;;;;;;12.90;35.20;14.70;97989.00;;;;5049211;28;1771;-88
2024/04/04 04:31:28;;;;;;;;;;;13.00;35.30;14.60;97960.00;;;;5054159;28;1741;-87
2024/04/04 04:33:56;;;;;;;;;;;13.00;35.30;14.60;97919.00;;;;5056305;28;1669;-88
2024/04/04 04:36:23;;;;;;;;;;;13.00;35.30;14.60;97949.00;;;;5036690;28;1681;-88
2024/04/04 04:38:50;;;;;;;;;;;12.90;35.20;14.60;98001.00;;;;5055522;28;1653;-89
2024/04/04 04:41:17;;;;;;;;;;;12.90;35.20;14.60;97990.00;;;;5056612;28;1444;-88
2024/04/04 04:43:46;;;;;;;;;;;12.90;35.30;14.60;97982.00;;;;5056190;28;1989;-88
2024/04/04 04:46:12;;;;;;;;;;;12.90;35.20;14.60;98015.00;;;;5055780;28;1776;-88
2024/04/04 04:48:39;;;;;;;;;;;13.00;35.30;14.50;98009.00;;;;5056309;28;1828;-88
2024/04/04 04:51:06;;;;;;;;;;;13.00;35.20;14.60;97941.00;;;;5056469;28;1596;-88
2024/04/04 04:53:34;;;;;;;;;;;12.90;35.20;14.60;97955.00;;;;5056424;28;1657;-87
2024/04/04 04:56:00;;;;;;;;;;;12.90;35.20;14.60;97960.00;;;;5056345;28;1701;-88
2024/04/04 04:58:27;;;;;;;;;;;12.90;35.20;14.60;97949.00;;;;5055967;28;1789;-88
2024/04/04 05:00:53;;;;;;;;;;;12.90;35.20;14.60;97997.00;;;;5056200;28;1293;-88
2024/04/04 05:03:21;;;;;;;;;;;12.90;35.10;14.50;98066.00;;;;5044595;28;1617;-88
2024/04/04 05:05:47;;;;;;;;;;;12.90;35.20;14.30;98053.00;;;;5055753;28;1983;-88
2024/04/04 05:08:15;;;;;;;;;;;12.90;35.10;14.50;98034.00;;;;5056170;28;1614;-88
2024/04/04 05:10:41;;;;;;;;;;;12.90;35.30;14.60;98017.00;;;;5041459;28;1644;-88
2024/04/04 05:13:09;;;;;;;;;;;12.90;35.10;14.40;97981.00;;;;5035962;28;1990;-88
2024/04/04 05:15:42;;;;;;;;;;;12.90;35.10;14.60;98021.00;;;;5045504;28;1634;-89
2024/04/04 05:18:09;;;;;;;;;;;12.90;35.30;14.60;97992.00;;;;5076435;28;1766;-88
2024/04/04 05:20:35;;;;;;;;;;;12.90;35.20;14.60;97999.00;;;;5075641;28;1475;-88
2024/04/04 05:23:02;;;;;;;;;;;12.90;35.30;14.60;97973.00;;;;5055734;28;1772;-86
2024/04/04 05:25:30;;;;;;;;;;;12.90;35.20;14.60;98005.00;;;;5054662;28;1906;-86
2024/04/04 05:27:57;;;;;;;;;;;12.90;35.30;14.60;98010.00;;;;5056976;28;1819;-86
2024/04/04 05:30:23;;;;;;;;;;;12.90;35.20;14.40;98021.00;;;;5054317;28;1835;-85
2024/04/04 05:32:50;;;;;;;;;;;12.90;35.30;14.70;97979.00;;;;5056806;28;1528;-86
2024/04/04 05:35:16;;;;;;;;;;;12.90;35.20;14.60;98006.00;;;;5063343;28;1783;-86
2024/04/04 05:37:43;;;;;;;;;;;12.90;35.20;14.60;97995.00;;;;5057753;28;1692;-86
2024/04/04 05:40:12;;;;;;;;;;;12.90;35.10;14.60;97996.00;;;;5058846;28;1649;-87
2024/04/04 05:42:41;;;;;;;;;;;12.90;35.20;14.60;97961.00;;;;5060577;28;1900;-86
2024/04/04 05:45:08;;;;;;;;;;;12.90;35.20;14.60;97986.00;;;;5056981;28;1997;-87
2024/04/04 05:47:35;;;;;;;;;;;12.90;35.20;14.60;97974.00;;;;5059358;28;1803;-87
2024/04/04 05:50:02;;;;;;;;;;;12.90;35.20;14.60;97923.00;;;;5056694;28;1771;-87
2024/04/04 05:52:29;;;;;;;;;;;13.00;35.20;14.60;97988.00;;;;5059367;28;1752;-86
2024/04/04 05:54:55;;;;;;;;;;;13.00;35.20;14.60;97975.00;;;;5056189;28;1743;-87
2024/04/04 05:57:22;;;;;;;;;;;12.90;35.10;14.60;97981.00;;;;5055896;28;1541;-87
2024/04/04 05:59:49;;;;;;;;;;;13.00;35.20;14.60;97938.00;;;;5060409;28;1852;-88
2024/04/04 06:02:16;;;;;;;;;;;13.00;35.20;14.60;97976.00;;;;5055991;28;1622;-87
2024/04/04 06:04:43;;;;;;;;;;;13.00;35.20;14.60;98013.00;;;;5049058;28;1902;-87
2024/04/04 06:07:25;;;;;;;;;;;13.00;35.20;14.60;97983.00;;;;5059242;28;1613;-86
2024/04/04 06:09:51;;;;;;;;;;;13.00;35.20;14.60;97961.00;;;;5059330;28;1740;-88
2024/04/04 06:12:18;;;;;;;;;;;13.00;35.20;14.70;97971.00;;;;5054859;28;1843;-88
2024/04/04 06:14:46;;;;;;;;;;;13.00;35.20;14.60;97961.00;;;;5061783;28;1709;-87
2024/04/04 06:17:15;;;;;;;;;;;13.00;35.20;14.70;97926.00;;;;5059314;28;1649;-88
2024/04/04 06:19:41;;;;;;;;;;;13.00;35.20;14.70;97934.00;;;;5058750;28;1658;-88
2024/04/04 06:22:08;;;;;;;;;;;13.00;35.10;14.60;97948.00;;;;5059047;28;1633;-88
2024/04/04 06:24:34;;;;;;;;;;;13.00;35.10;14.70;97984.00;;;;5058601;28;1906;-87
2024/04/04 06:27:01;;;;;;;;;;;13.00;35.10;14.70;97905.00;;;;5057118;28;1846;-87
2024/04/04 06:29:27;;;;;;;;;;;13.00;35.10;14.70;97967.00;;;;5058934;28;1653;-87
2024/04/04 06:31:54;;;;;;;;;;;13.00;35.10;14.70;97967.00;;;;5064439;28;1694;-88
2024/04/04 06:34:21;;;;;;;;;;;13.00;35.10;14.70;97951.00;;;;5052504;28;1518;-87
2024/04/04 06:36:51;;;;;;;;;;;13.00;35.40;14.70;97992.00;;;;5058219;28;1648;-87
2024/04/04 06:39:18;;;;;;;;;;;13.00;35.10;14.70;97963.00;;;;5057972;28;1652;-87
2024/04/04 06:41:48;;;;;;;;;;;13.00;35.10;14.70;97999.00;;;;5058052;28;1864;-88
2024/04/04 06:44:14;;;;;;;;;;;13.00;35.10;14.70;97962.00;;;;5056241;28;1961;-88
2024/04/04 06:46:41;;;;;;;;;;;13.00;35.10;14.80;97984.00;;;;5060173;28;1623;-88
2024/04/04 06:49:08;;;;;;;;;;;13.10;35.20;14.70;97965.00;;;;5057321;28;1793;-86
2024/04/04 06:51:37;;;;;;;;;;;13.00;35.10;14.50;98012.00;;;;5057006;28;1869;-88
2024/04/04 06:54:05;;;;;;;;;;;13.00;35.10;14.70;97964.00;;;;5049732;28;1782;-88
2024/04/04 06:56:33;;;;;;;;;;;13.00;35.10;14.70;97961.00;;;;5053286;28;1774;-88
2024/04/04 06:58:59;;;;;;;;;;;13.00;35.10;14.60;97957.00;;;;5054010;28;1694;-87
2024/04/04 07:01:35;;;;;;;;;;;13.10;35.10;14.70;97989.00;;;;5054135;28;1472;-88
2024/04/04 07:04:01;;;;;;;;;;;13.10;35.10;14.50;98010.00;;;;5049405;28;1980;-87
2024/04/04 07:06:28;;;;;;;;;;;13.00;35.10;14.60;97988.00;;;;5055464;28;1842;-88
2024/04/04 07:08:56;;;;;;;;;;;13.10;35.70;14.70;97933.00;;;;5061007;28;1634;-87
2024/04/04 07:11:23;;;;;;;;;;;13.10;35.10;14.80;97975.00;;;;5051739;28;1765;-88
2024/04/04 07:13:49;;;;;;;;;;;13.10;35.00;14.80;97933.00;;;;5053160;28;1427;-88
2024/04/04 07:16:16;;;;;;;;;;;13.10;35.00;14.80;97969.00;;;;5050021;28;1710;-88
2024/04/04 07:18:42;;;;;;;;;;;13.10;35.00;14.80;97925.00;;;;5057934;28;1443;-88
2024/04/04 07:21:09;;;;;;;;;;;13.10;35.00;14.70;97938.00;;;;5057800;28;1661;-89
2024/04/04 07:23:35;;;;;;;;;;;13.10;35.00;14.80;97909.00;;;;5062918;28;1673;-89
2024/04/04 07:26:04;;;;;;;;;;;13.10;35.00;14.80;97979.00;;;;5059602;28;1902;-89
2024/04/04 07:28:30;;;;;;;;;;;13.10;35.00;14.80;97966.00;;;;5059245;28;1724;-89
2024/04/04 07:30:57;;;;;;;;;;;13.10;34.90;14.80;97975.00;;;;5053777;28;1745;-88
2024/04/04 07:33:23;;;;;;;;;;;13.10;34.90;14.80;98016.00;;;;5058096;28;1518;-89
2024/04/04 07:35:50;;;;;;;;;;;13.10;35.00;14.80;97991.00;;;;5059020;28;1647;-89
2024/04/04 07:38:16;;;;;;;;;;;13.20;35.00;14.80;97964.00;;;;5051809;28;1673;-89
2024/04/04 07:40:43;;;;;;;;;;;13.10;34.80;14.80;97982.00;;;;5061087;28;1663;-89
2024/04/04 07:43:11;;;;;;;;;;;13.20;35.00;14.90;97963.00;;;;5078862;28;1485;-89
2024/04/04 07:45:39;;;;;;;;;;;13.10;35.00;14.90;97937.00;;;;5052773;28;1878;-89
2024/04/04 07:48:07;;;;;;;;;;;13.10;34.90;14.90;98004.00;;;;5062891;28;1411;-89
2024/04/04 07:50:35;;;;;;;;;;;13.20;35.00;14.90;97980.00;;;;5056124;28;1819;-89
2024/04/04 07:53:02;;;;;;;;;;;13.20;35.00;14.90;97971.00;;;;5070282;28;1660;-89
2024/04/04 07:55:29;;;;;;;;;;;13.20;35.00;14.60;98004.00;;;;5062802;28;1626;-89
2024/04/04 07:57:55;;;;;;;;;;;13.20;35.00;14.90;97980.00;;;;5064063;28;1525;-89
2024/04/04 08:00:25;;;;;;;;;;;13.20;35.00;14.90;97972.00;;;;5066825;28;1855;-89
2024/04/04 08:02:51;;;;;;;;;;;13.20;35.00;14.90;97938.00;;;;5066293;28;1645;-89
2024/04/04 08:05:19;;;;;;;;;;;13.20;34.90;14.70;97982.00;;;;5077411;28;1966;-89
2024/04/04 08:07:45;;;;;;;;;;;13.20;34.90;14.70;97986.00;;;;5057259;28;1382;-88
2024/04/04 08:10:15;;;;;;;;;;;13.20;34.90;14.90;97955.00;;;;5054133;28;1603;-89
2024/04/04 08:12:41;;;;;;;;;;;13.20;34.90;14.90;97989.00;;;;5056736;28;1546;-89
2024/04/04 08:15:12;;;;;;;;;;;13.20;34.80;14.90;97923.00;;;;5057559;28;1467;-89
2024/04/04 08:17:53;;;;;;;;;;;13.20;34.90;14.90;97986.00;;;;5052354;28;1648;-89
2024/04/04 08:20:20;;;;;;;;;;;13.20;35.00;14.90;97993.00;;;;5054062;28;1687;-90
2024/04/04 08:22:55;;;;;;;;;;;13.20;34.90;14.90;98004.00;;;;5054782;28;1579;-90
2024/04/04 08:25:53;;;;;;;;;;;13.20;35.00;14.90;97986.00;;;;5056157;28;1981;-90
2024/04/04 08:28:23;;;;;;;;;;;13.30;35.00;14.90;97966.00;;;;5057972;28;1380;-89
2024/04/04 08:31:02;;;;;;;;;;;13.20;35.00;14.90;97978.00;;;;5055597;28;1694;-90
2024/04/04 08:33:30;;;;;;;;;;;13.20;35.00;14.90;98011.00;;;;5055236;28;1645;-88
2024/04/04 08:35:58;;;;;;;;;;;13.20;35.00;14.80;97940.00;;;;5056658;28;1463;-91
2024/04/04 08:38:24;;;;;;;;;;;13.20;34.90;14.80;98015.00;;;;5050813;28;1560;-90
2024/04/04 08:40:51;;;;;;;;;;;13.30;34.90;14.90;98005.00;;;;5063082;28;1533;-90
2024/04/04 08:43:17;;;;;;;;;;;13.30;34.90;15.00;97950.00;;;;5049894;28;1439;-90
2024/04/04 08:45:47;;;;;;;;;;;13.30;35.00;14.90;97982.00;;;;5053037;28;1906;-90
2024/04/04 08:48:20;;;;;;;;;;;13.30;35.00;15.00;97947.00;;;;5057899;28;1434;-89
2024/04/04 08:50:48;;;;;;;;;;;13.30;35.00;15.00;97920.00;;;;5056075;28;1586;-89
2024/04/04 08:53:15;;;;;;;;;;;13.30;35.00;15.00;97874.00;;;;5059619;28;1664;-89
2024/04/04 08:55:43;;;;;;;;;;;13.30;35.00;15.00;97949.00;;;;5059918;28;1419;-91
2024/04/04 08:58:12;;;;;;;;;;;13.30;35.00;15.00;97958.00;;;;5056016;28;1634;-89
2024/04/04 09:00:39;;;;;;;;;;;13.30;35.10;14.90;98010.00;;;;5058757;28;1681;-89
2024/04/04 09:03:06;;;;;;;;;;;13.30;35.00;15.00;97917.00;;;;5056631;28;1664;-88
2024/04/04 09:05:34;;;;;;;;;;;13.20;34.80;15.00;97956.00;;;;5054299;28;1979;-88
2024/04/04 09:08:04;;;;;;;;;;;13.20;34.90;14.90;97999.00;;;;5055812;28;1689;-89
2024/04/04 09:10:30;;;;;;;;;;;13.20;35.00;15.00;97942.00;;;;5061112;28;1793;-89
2024/04/04 09:13:01;;;;;;;;;;;13.20;35.00;14.90;98009.00;;;;5055665;28;1581;-88
2024/04/04 09:15:27;;;;;;;;;;;13.30;35.10;15.00;98002.00;;;;5057158;28;1788;-89
2024/04/04 09:18:04;;;;;;;;;;;13.20;35.00;15.00;97936.00;;;;5057040;28;1813;-88
2024/04/04 09:20:32;;;;;;;;;;;13.30;35.00;14.70;98012.00;;;;5057601;28;1391;-88
2024/04/04 09:23:01;;;;;;;;;;;13.30;35.00;15.00;97967.00;;;;5052111;28;1634;-88
2024/04/04 09:25:28;;;;;;;;;;;13.30;35.00;15.00;97926.00;;;;5055048;28;1910;-88
2024/04/04 09:27:56;;;;;;;;;;;13.30;35.00;14.80;97976.00;;;;5057891;28;1656;-88
2024/04/04 09:30:24;;;;;;;;;;;13.30;35.00;15.00;97976.00;;;;5056203;28;2590;-87
2024/04/04 09:32:56;;;;;;;;;;;13.30;35.00;15.00;98024.00;;;;5057407;28;1825;-88
2024/04/04 09:35:22;;;;;;;;;;;13.30;35.00;14.80;97981.00;;;;5052899;28;1462;-88
2024/04/04 09:37:49;;;;;;;;;;;13.30;35.00;14.90;97966.00;;;;5052148;28;1420;-88
2024/04/04 09:40:16;;;;;;;;;;;13.30;35.00;15.00;97939.00;;;;5057702;28;1536;-86
2024/04/04 09:42:45;;;;;;;;;;;13.30;35.00;15.00;97953.00;;;;5054889;28;1437;-87
2024/04/04 09:45:12;;;;;;;;;;;13.30;35.00;15.00;97988.00;;;;5055300;28;1985;-87
2024/04/04 09:47:43;;;;;;;;;;;13.30;35.10;15.00;97913.00;;;;5051734;28;1588;-87
2024/04/04 09:50:09;;;;;;;;;;;13.30;35.10;15.00;98015.00;;;;5049969;28;1775;-88
2024/04/04 09:52:37;;;;;;;;;;;13.30;35.00;15.00;98004.00;;;;5053769;28;1567;-87
2024/04/04 09:55:05;;;;;;;;;;;13.30;35.00;15.00;97994.00;;;;5055438;28;1581;-87
2024/04/04 09:57:32;;;;;;;;;;;13.30;35.10;15.00;97967.00;;;;5070911;28;1889;-87
2024/04/04 10:00:13;;;;;;;;;;;13.30;35.00;15.00;98001.00;;;;5055085;28;1668;-87
2024/04/04 10:02:47;;;;;;;;;;;13.30;35.10;15.00;97940.00;;;;5053928;28;1515;-88
2024/04/04 10:05:17;;;;;;;;;;;13.30;35.10;15.10;98018.00;;;;5056379;28;1906;-89
2024/04/04 10:07:45;;;;;;;;;;;13.30;35.10;15.10;97933.00;;;;5056425;28;1798;-89
2024/04/04 10:10:19;;;;;;;;;;;13.30;35.00;15.00;97999.00;;;;5062993;28;1836;-87
2024/04/04 10:12:50;;;;;;;;;;;13.30;35.10;15.00;97987.00;;;;5055429;28;1470;-88
2024/04/04 10:15:18;;;;;;;;;;;13.30;35.00;15.00;97960.00;;;;5047995;28;1620;-89
2024/04/04 10:17:46;;;;;;;;;;;13.30;35.00;15.10;97981.00;;;;5059578;28;1567;-89
2024/04/04 10:20:12;;;;;;;;;;;13.30;35.00;15.10;97970.00;;;;5055153;28;1780;-89
2024/04/04 10:22:39;;;;;;;;;;;13.30;35.00;15.00;97907.00;;;;5058132;28;1383;-88
2024/04/04 10:25:06;;;;;;;;;;;13.30;35.00;15.00;97949.00;;;;5059202;28;1985;-89
2024/04/04 10:27:33;;;;;;;;;;;13.30;35.00;15.00;97925.00;;;;5051393;28;1539;-90
2024/04/04 10:29:59;;;;;;;;;;;13.30;34.90;15.10;97934.00;;;;5057216;28;1502;-89
2024/04/04 10:32:30;;;;;;;;;;;13.30;34.90;15.10;97928.00;;;;5049811;28;1503;-89
2024/04/04 10:35:00;;;;;;;;;;;13.30;35.00;15.10;98011.00;;;;5062171;28;1543;-89
2024/04/04 10:37:31;;;;;;;;;;;13.30;35.00;14.90;97946.00;;;;5057349;28;1501;-89
2024/04/04 10:39:57;;;;;;;;;;;13.30;35.00;15.00;97985.00;;;;5065027;28;1491;-88
2024/04/04 10:42:26;;;;;;;;;;;13.30;35.00;15.00;98040.00;;;;5062270;28;1597;-89
2024/04/04 10:44:52;;;;;;;;;;;13.30;35.00;15.10;97970.00;;;;5064576;28;1965;-89
2024/04/04 10:47:19;;;;;;;;;;;13.40;35.10;14.90;98041.00;;;;5070364;28;1483;-89
2024/04/04 10:49:47;;;;;;;;;;;13.30;34.90;15.10;97999.00;;;;5067332;28;1747;-89
2024/04/04 10:52:15;;;;;;;;;;;13.30;35.00;14.80;98032.00;;;;5057145;28;1471;-89
2024/04/04 10:54:43;;;;;;;;;;;13.30;35.00;14.90;98045.00;;;;5047905;28;1638;-89
2024/04/04 10:57:10;;;;;;;;;;;13.30;35.10;15.10;97983.00;;;;5050814;28;1774;-85
2024/04/04 10:59:37;;;;;;;;;;;13.30;35.00;15.10;98003.00;;;;5060498;28;1795;-88
2024/04/04 11:02:08;;;;;;;;;;;13.30;35.00;15.00;97995.00;;;;5056708;28;1681;-88
2024/04/04 11:04:35;;;;;;;;;;;13.30;35.10;15.10;97970.00;;;;5051848;28;1771;-88
2024/04/04 11:07:05;;;;;;;;;;;13.30;35.00;15.10;97971.00;;;;5054771;28;1985;-86
2024/04/04 11:09:34;;;;;;;;;;;13.30;35.10;15.10;97917.00;;;;5057645;28;1625;-87
2024/04/04 11:12:01;;;;;;;;;;;13.30;35.10;15.10;97912.00;;;;5056839;28;1656;-87
2024/04/04 11:14:27;;;;;;;;;;;13.30;35.00;15.10;97975.00;;;;5056971;28;1586;-86
2024/04/04 11:16:55;;;;;;;;;;;13.30;35.00;15.10;97968.00;;;;5056916;28;1645;-86
2024/04/04 11:19:22;;;;;;;;;;;13.40;35.10;15.10;97923.00;;;;5055717;28;1630;-86
2024/04/04 11:21:52;;;;;;;;;;;13.40;35.00;15.10;97925.00;;;;5060495;28;1486;-86
2024/04/04 11:24:22;;;;;;;;;;;13.40;35.00;14.80;98005.00;;;;5051741;28;1721;-86
2024/04/04 11:26:49;;;;;;;;;;;13.40;35.00;15.10;97928.00;;;;5054078;28;1981;-85
2024/04/04 11:29:18;;;;;;;;;;;13.40;34.90;15.20;97970.00;;;;5057287;28;1817;-88
2024/04/04 11:31:53;;;;;;;;;;;13.40;34.90;15.10;97977.00;;;;5064403;28;1846;-85
2024/04/04 11:34:20;;;;;;;;;;;13.40;34.90;15.10;97930.00;;;;5059243;28;1706;-88
2024/04/04 11:36:47;;;;;;;;;;;13.40;34.80;15.20;97996.00;;;;5064340;28;1668;-87
2024/04/04 11:39:13;;;;;;;;;;;13.50;34.90;15.20;97972.00;;;;5055519;28;1869;-90
2024/04/04 11:41:41;;;;;;;;;;;13.40;34.80;15.20;97958.00;;;;5058623;28;1763;-87
2024/04/04 11:44:07;;;;;;;;;;;13.40;34.80;15.20;97946.00;;;;5056249;28;1853;-87
2024/04/04 11:46:35;;;;;;;;;;;13.40;34.80;15.20;97921.00;;;;5052153;28;1915;-89
2024/04/04 11:49:01;;;;;;;;;;;13.50;35.00;15.20;97981.00;;;;5068738;28;1557;-88
2024/04/04 11:51:28;;;;;;;;;;;13.50;34.90;15.20;97943.00;;;;5056942;28;1860;-88
2024/04/04 11:54:09;;;;;;;;;;;13.50;34.90;15.20;98029.00;;;;5058653;28;1757;-88
2024/04/04 11:56:46;;;;;;;;;;;13.50;35.00;15.20;97971.00;;;;5048662;28;1629;-88
2024/04/04 11:59:12;;;;;;;;;;;13.50;35.00;15.20;97971.00;;;;5050884;28;1666;-89
2024/04/04 12:01:40;;;;;;;;;;;13.50;34.80;15.20;98024.00;;;;5052769;28;1587;-87
2024/04/04 12:04:14;;;;;;;;;;;13.50;34.90;15.10;97981.00;;;;5062280;28;1636;-87
2024/04/04 12:06:42;;;;;;;;;;;13.40;34.90;15.20;97997.00;;;;5050021;28;1963;-88
2024/04/04 12:09:09;;;;;;;;;;;13.40;34.80;15.20;97971.00;;;;5050927;28;1638;-88
2024/04/04 12:11:38;;;;;;;;;;;13.40;34.90;15.20;97985.00;;;;5056084;28;1599;-88